Time;durP1;ratioP1;P1;durP2;ratioP2;P2;SDS_P1;SDS_P2;PMS_P1;PMS_P2;Temp;Humidity;BMP_temperature;BMP_pressure;BME280_temperature;BME280_humidity;BME280_pressure;Samples;Min_cycle;Max_cycle;Signal;HPM_P1;HPM_P2
2021/07/24 00:07:58;;;;;;;10.9;8.3;;;;;;;16.32;100;98547.19;;;;
2021/07/24 00:17:58;;;;;;;13.5;10.5;;;;;;;16.19;100;98545.66;;;;
2021/07/24 00:27:57;;;;;;;13.1;8.7;;;;;;;15.96;100;98535.31;;;;
2021/07/24 00:37:56;;;;;;;11.6;8.9;;;;;;;15.88;100;98532.72;;;;
2021/07/24 00:47:56;;;;;;;14.4;9.4;;;;;;;15.65;100;98531.63;;;;
2021/07/24 00:57:55;;;;;;;15.1;8.2;;;;;;;15.63;100;98531.17;;;;
2021/07/24 01:07:55;;;;;;;13.1;10.5;;;;;;;15.5;100;98530.4;;;;
2021/07/24 01:17:54;;;;;;;15.6;10.7;;;;;;;15.35;100;98512.83;;;;
2021/07/24 01:27:53;;;;;;;13.5;8.4;;;;;;;15.13;100;98511.35;;;;
2021/07/24 01:37:53;;;;;;;14.9;10.7;;;;;;;15.02;100;98518.38;;;;
2021/07/24 01:47:52;;;;;;;13.3;9.9;;;;;;;14.9;100;98502.06;;;;
2021/07/24 01:57:52;;;;;;;17.8;11.7;;;;;;;14.99;100;98491.13;;;;
2021/07/24 02:07:51;;;;;;;16.9;12;;;;;;;14.94;100;98494.84;;;;
2021/07/24 02:17:50;;;;;;;10.1;8.9;;;;;;;14.66;100;98490.38;;;;
2021/07/24 02:27:49;;;;;;;13.4;10.8;;;;;;;14.68;100;98502.5;;;;
2021/07/24 02:37:49;;;;;;;12.9;9.7;;;;;;;14.49;100;98488.65;;;;
2021/07/24 02:47:48;;;;;;;13.4;9.3;;;;;;;14.39;100;98494.5;;;;
2021/07/24 02:57:47;;;;;;;13.2;10.7;;;;;;;14.24;100;98508.64;;;;
2021/07/24 03:07:47;;;;;;;15;10.4;;;;;;;14.16;100;98513;;;;
2021/07/24 03:17:46;;;;;;;14.4;11.6;;;;;;;14.12;100;98512.11;;;;
2021/07/24 03:27:45;;;;;;;12.5;10.3;;;;;;;14.14;100;98512.56;;;;
2021/07/24 03:37:44;;;;;;;13.4;10.4;;;;;;;14.2;100;98518.55;;;;
2021/07/24 03:47:44;;;;;;;18.8;9.8;;;;;;;14.29;100;98519.29;;;;
2021/07/24 03:57:43;;;;;;;12.9;11;;;;;;;14.55;100;98517.14;;;;
2021/07/24 04:07:42;;;;;;;15;10.6;;;;;;;14.78;100;98521.05;;;;
2021/07/24 04:17:41;;;;;;;13.8;10.8;;;;;;;15.18;100;98525.84;;;;
2021/07/24 04:27:41;;;;;;;18.1;11.4;;;;;;;15.6;100;98529.94;;;;
2021/07/24 04:37:40;;;;;;;13.7;11.2;;;;;;;15.83;100;98517.43;;;;
2021/07/24 04:47:40;;;;;;;14.1;12.1;;;;;;;16.3;100;98517.64;;;;
2021/07/24 04:57:39;;;;;;;15.7;11.6;;;;;;;16.68;100;98514.41;;;;
2021/07/24 05:07:40;;;;;;;15;12.1;;;;;;;17.28;100;98506.97;;;;
2021/07/24 05:17:38;;;;;;;16.6;14.5;;;;;;;17.72;100;98516.59;;;;
2021/07/24 05:27:38;;;;;;;17.3;13.9;;;;;;;18.1;100;98510.38;;;;
2021/07/24 05:37:38;;;;;;;17.8;15.9;;;;;;;18.55;100;98516;;;;
2021/07/24 05:47:37;;;;;;;18.9;14.9;;;;;;;18.98;100;98514.83;;;;
2021/07/24 05:57:37;;;;;;;17.5;15;;;;;;;19.48;100;98519.17;;;;
2021/07/24 06:07:37;;;;;;;16.1;14.2;;;;;;;20.14;100;98520.47;;;;
2021/07/24 06:17:37;;;;;;;17;13.4;;;;;;;20.68;100;98516.44;;;;
2021/07/24 06:27:41;;;;;;;15.5;13.2;;;;;;;20.86;100;98507.22;;;;
2021/07/24 06:37:39;;;;;;;17.6;12.2;;;;;;;21.3;100;98509.2;;;;
2021/07/24 06:47:39;;;;;;;19;12.7;;;;;;;20.92;100;98508.47;;;;
2021/07/24 06:57:39;;;;;;;15.3;11.5;;;;;;;21.37;100;98509.26;;;;
2021/07/24 07:07:41;;;;;;;13.6;11.4;;;;;;;21.83;100;98515.82;;;;
2021/07/24 07:17:39;;;;;;;13.4;9.8;;;;;;;22.14;100;98511.72;;;;
2021/07/24 07:27:41;;;;;;;13;10.8;;;;;;;22.39;100;98511.79;;;;
2021/07/24 07:37:48;;;;;;;19.2;9.6;;;;;;;22.57;100;98507.14;;;;
2021/07/24 07:47:40;;;;;;;14;8.5;;;;;;;22.91;100;98519.41;;;;
2021/07/24 07:57:41;;;;;;;10.5;7.1;;;;;;;23.18;100;98517.1;;;;
2021/07/24 08:07:41;;;;;;;15.4;8.6;;;;;;;23.85;100;98511.53;;;;
2021/07/24 08:17:42;;;;;;;16.3;8.2;;;;;;;23.82;100;98504.08;;;;
2021/07/24 08:27:42;;;;;;;10.4;7.7;;;;;;;24.15;100;98500.08;;;;
2021/07/24 08:37:43;;;;;;;9.7;7.4;;;;;;;24.47;100;98492.44;;;;
2021/07/24 08:47:44;;;;;;;9.9;6.9;;;;;;;24.48;100;98485.75;;;;
2021/07/24 08:57:44;;;;;;;11.5;7.3;;;;;;;24.47;100;98495.19;;;;
2021/07/24 09:07:46;;;;;;;10.5;7.7;;;;;;;24.65;100;98486.83;;;;
2021/07/24 09:17:46;;;;;;;9.7;7.6;;;;;;;25.01;100;98484.65;;;;
2021/07/24 09:27:46;;;;;;;12.1;8.4;;;;;;;25.21;100;98465.56;;;;
2021/07/24 09:37:47;;;;;;;11.4;7.8;;;;;;;25.54;100;98467.66;;;;
2021/07/24 09:47:52;;;;;;;11.2;7.8;;;;;;;25.79;100;98459.13;;;;
2021/07/24 09:57:49;;;;;;;11.8;7.4;;;;;;;25.58;100;98456.59;;;;
2021/07/24 10:07:50;;;;;;;16.3;7.3;;;;;;;25.72;94.89258;98450.92;;;;
2021/07/24 10:17:51;;;;;;;10.9;7.5;;;;;;;26.26;90.69922;98432.52;;;;
2021/07/24 10:27:51;;;;;;;9.9;7.5;;;;;;;26.49;88.10254;98427.05;;;;
2021/07/24 10:37:54;;;;;;;8.5;6.3;;;;;;;26.43;87.74219;98426.75;;;;
2021/07/24 10:48:01;;;;;;;10.7;8.3;;;;;;;27.02;87.51367;98426.26;;;;
2021/07/24 10:57:57;;;;;;;22;7.8;;;;;;;27.13;78.60156;98426.08;;;;
2021/07/24 11:07:55;;;;;;;9.5;6.5;;;;;;;27.19;81.16406;98432.69;;;;
2021/07/24 11:18:23;;;;;;;8.9;6.4;;;;;;;27.31;79.5;98426.55;;;;
2021/07/24 11:27:58;;;;;;;11;7.1;;;;;;;27.21;79.49512;98417.25;;;;
2021/07/24 11:37:59;;;;;;;10;6.5;;;;;;;27.61;77.02051;98420.09;;;;
2021/07/24 11:48:00;;;;;;;12.4;6.4;;;;;;;27.5;78.08203;98407.23;;;;
2021/07/24 11:58:01;;;;;;;13.6;7.6;;;;;;;27.86;78.76367;98406.54;;;;
2021/07/24 12:08:02;;;;;;;15.3;8.4;;;;;;;27.95;76.55273;98404.75;;;;
2021/07/24 12:18:03;;;;;;;9.2;6;;;;;;;28.07;73.14063;98400.58;;;;
2021/07/24 12:28:04;;;;;;;10.7;6.2;;;;;;;27.92;77.28418;98393.73;;;;
2021/07/24 12:38:05;;;;;;;9.4;6.3;;;;;;;28.1;77.2207;98387.85;;;;
2021/07/24 12:48:06;;;;;;;9;6.6;;;;;;;28.41;73.07715;98386.36;;;;
2021/07/24 12:58:07;;;;;;;7.7;6.9;;;;;;;28.46;73.33301;98378.3;;;;
2021/07/24 13:08:08;;;;;;;8.4;6.6;;;;;;;28.13;74.9834;98376.69;;;;
2021/07/24 13:18:09;;;;;;;10.7;8.7;;;;;;;28.43;75.26855;98372.83;;;;
2021/07/24 13:28:17;;;;;;;8.4;5.3;;;;;;;28.05;73.00879;98361.39;;;;
2021/07/24 13:38:12;;;;;;;7.5;6.4;;;;;;;29.07;75.70313;98355.43;;;;
2021/07/24 13:48:13;;;;;;;11.8;7.7;;;;;;;28.99;71.33301;98359.59;;;;
2021/07/24 13:58:14;;;;;;;8.9;6.3;;;;;;;29.09;74.62305;98352.23;;;;
2021/07/24 14:08:15;;;;;;;9;5.9;;;;;;;29.59;72.48828;98357.22;;;;
2021/07/24 14:18:16;;;;;;;9.1;6.7;;;;;;;29.86;71.85938;98361.2;;;;
2021/07/24 14:28:18;;;;;;;8.8;5.7;;;;;;;29.84;65.68848;98368.44;;;;
2021/07/24 14:38:19;;;;;;;6.9;5.9;;;;;;;29.66;67.56543;98362.58;;;;
2021/07/24 14:48:20;;;;;;;7.4;5.4;;;;;;;30.27;67.8584;98360.36;;;;
2021/07/24 14:58:22;;;;;;;8.5;5.8;;;;;;;30.18;62.65918;98356.69;;;;
2021/07/24 15:08:23;;;;;;;8.7;6.7;;;;;;;30.7;63.07617;98357.03;;;;
2021/07/24 15:18:24;;;;;;;19.4;16.8;;;;;;;32.33;59.38379;98351.19;;;;
2021/07/24 15:28:26;;;;;;;7.5;5;;;;;;;33.27;55.15723;98353.3;;;;
2021/07/24 15:38:28;;;;;;;10.5;7;;;;;;;34.55;45.95117;98343.39;;;;
2021/07/24 15:48:30;;;;;;;11.5;8.8;;;;;;;34.77;44.40918;98338.33;;;;
2021/07/24 15:58:32;;;;;;;20.5;13.5;;;;;;;36.15;40.52246;98341.5;;;;
2021/07/24 16:08:34;;;;;;;7.3;5;;;;;;;35.38;39.40527;98327.59;;;;
2021/07/24 16:18:36;;;;;;;8.8;6.1;;;;;;;34.19;44.18457;98323.98;;;;
2021/07/24 16:28:39;;;;;;;9.5;5.3;;;;;;;32.04;50.03516;98320.05;;;;
2021/07/24 16:38:41;;;;;;;7.8;5.1;;;;;;;33.39;47.57227;98299.29;;;;
2021/07/24 16:48:43;;;;;;;8.6;5.5;;;;;;;34.14;45.28418;98299.44;;;;
2021/07/24 16:58:45;;;;;;;6.9;4.6;;;;;;;34.53;42.50977;98298.31;;;;
2021/07/24 17:08:47;;;;;;;6.8;4.8;;;;;;;33.34;47.29199;98283.92;;;;
2021/07/24 17:18:49;;;;;;;8.4;4.1;;;;;;;32.74;47.27734;98289.31;;;;
2021/07/24 17:28:52;;;;;;;9.1;6;;;;;;;30.1;56.2002;98277.5;;;;
2021/07/24 17:38:53;;;;;;;8;5.1;;;;;;;28.57;62.47363;98269.14;;;;
2021/07/24 17:48:54;;;;;;;12;7.6;;;;;;;27.86;65.79102;98276.34;;;;
2021/07/24 17:58:55;;;;;;;12.4;8.8;;;;;;;27.42;67.26855;98280.44;;;;
2021/07/24 18:08:56;;;;;;;13.5;11.6;;;;;;;26.23;75.18457;98282.18;;;;
2021/07/24 18:18:57;;;;;;;17;13.7;;;;;;;25.23;82.14355;98286.66;;;;
2021/07/24 18:28:58;;;;;;;17.7;12.5;;;;;;;24.37;86.67969;98280.37;;;;
2021/07/24 18:38:58;;;;;;;22.8;14.2;;;;;;;23.68;93.04395;98299.68;;;;
2021/07/24 18:48:59;;;;;;;10.7;8.8;;;;;;;23.06;96.30078;98301.08;;;;
2021/07/24 18:58:59;;;;;;;14.3;9.5;;;;;;;22.58;99.49316;98306.23;;;;
2021/07/24 19:08:59;;;;;;;12.4;11.1;;;;;;;22.17;100;98301.52;;;;
2021/07/24 19:19:00;;;;;;;19.9;15.4;;;;;;;21.83;100;98285.34;;;;
2021/07/24 19:29:00;;;;;;;41.6;31.5;;;;;;;21.5;100;98288.39;;;;
2021/07/24 19:39:00;;;;;;;32.1;26;;;;;;;21.15;100;98277.28;;;;
2021/07/24 19:49:00;;;;;;;24.5;20.6;;;;;;;20.81;100;98273.95;;;;
2021/07/24 19:59:00;;;;;;;15.2;12.8;;;;;;;20.64;100;98274.63;;;;
2021/07/24 20:09:00;;;;;;;18.9;12.9;;;;;;;20.43;100;98277.98;;;;
2021/07/24 20:19:00;;;;;;;19.9;12.9;;;;;;;20.18;100;98285.17;;;;
2021/07/24 20:29:00;;;;;;;16.6;13.8;;;;;;;19.9;100;98283.75;;;;
2021/07/24 20:39:00;;;;;;;13.1;11.4;;;;;;;19.68;100;98287.42;;;;
2021/07/24 20:49:00;;;;;;;18.5;14.3;;;;;;;19.4;100;98308.95;;;;
2021/07/24 20:59:00;;;;;;;27.5;14.7;;;;;;;19.18;100;98318.03;;;;
2021/07/24 21:08:59;;;;;;;17.1;13.3;;;;;;;19;100;98324.05;;;;
2021/07/24 21:18:59;;;;;;;17.4;15.6;;;;;;;18.84;100;98342.55;;;;
2021/07/24 21:28:59;;;;;;;20.5;15.1;;;;;;;18.67;100;98351.25;;;;
2021/07/24 21:38:58;;;;;;;17;14.4;;;;;;;18.52;100;98365.81;;;;
2021/07/24 21:48:58;;;;;;;23.5;16.6;;;;;;;18.36;100;98367.86;;;;
2021/07/24 21:58:58;;;;;;;19.2;17.1;;;;;;;18.22;100;98375.79;;;;
2021/07/24 22:08:57;;;;;;;16.9;13.6;;;;;;;18.14;100;98374.08;;;;
2021/07/24 22:18:57;;;;;;;22.1;13;;;;;;;18.02;100;98367.63;;;;
2021/07/24 22:28:57;;;;;;;16.1;13.5;;;;;;;17.9;100;98359.63;;;;
2021/07/24 22:38:56;;;;;;;17.3;13.5;;;;;;;17.85;100;98357.18;;;;
2021/07/24 22:48:56;;;;;;;18.5;15.4;;;;;;;17.77;100;98358.18;;;;
2021/07/24 22:58:56;;;;;;;21.8;17.1;;;;;;;17.64;100;98355.97;;;;
2021/07/24 23:08:55;;;;;;;20;13.2;;;;;;;17.59;100;98346.95;;;;
2021/07/24 23:18:55;;;;;;;16.2;12.5;;;;;;;17.54;100;98338.23;;;;
2021/07/24 23:28:56;;;;;;;14.7;13.2;;;;;;;17.43;100;98338.02;;;;
2021/07/24 23:38:54;;;;;;;21.9;14.9;;;;;;;17.14;100;98335.86;;;;
2021/07/24 23:48:53;;;;;;;19.4;14.4;;;;;;;16.98;100;98324.2;;;;
2021/07/24 23:58:53;;;;;;;13.7;10.3;;;;;;;16.93;100;98328.02;;;;
